Time;durP1;ratioP1;P1;durP2;ratioP2;P2;SDS_P1;SDS_P2;PMS_P1;PMS_P2;Temp;Humidity;BMP_temperature;BMP_pressure;BME280_temperature;BME280_humidity;BME280_pressure;Samples;Min_cycle;Max_cycle;Signal;HPM_P1;HPM_P2
2021/01/03 00:00:53;;;;;;;2.20;1.10;;;3.60;99.90;;;;;;5073606;28;20437;-56
2021/01/03 00:03:21;;;;;;;2.90;1.20;;;3.50;99.90;;;;;;5075590;28;20518;-56
2021/01/03 00:05:48;;;;;;;2.05;1.20;;;3.30;99.90;;;;;;5075764;28;20455;-57
2021/01/03 00:08:15;;;;;;;1.60;0.90;;;3.40;99.90;;;;;;5068011;28;20790;-58
2021/01/03 00:10:42;;;;;;;1.70;1.00;;;3.50;99.90;;;;;;5076223;28;20676;-58
2021/01/03 00:13:09;;;;;;;2.08;1.05;;;3.60;99.90;;;;;;5074455;28;20510;-56
2021/01/03 00:15:35;;;;;;;2.03;1.10;;;3.70;99.90;;;;;;5074113;28;20466;-57
2021/01/03 00:18:02;;;;;;;2.55;1.20;;;3.70;99.90;;;;;;5077653;28;20913;-57
2021/01/03 00:20:37;;;;;;;2.00;1.20;;;3.60;99.90;;;;;;5077218;28;20515;-58
2021/01/03 00:23:05;;;;;;;1.40;0.90;;;3.60;99.90;;;;;;5077978;28;20509;-57
2021/01/03 00:25:32;;;;;;;1.50;1.00;;;3.70;99.90;;;;;;5077008;28;20526;-59
2021/01/03 00:27:59;;;;;;;2.50;1.10;;;3.90;99.90;;;;;;5076768;28;20426;-60
2021/01/03 00:30:27;;;;;;;2.20;1.00;;;3.80;99.90;;;;;;5077161;28;20503;-58
2021/01/03 00:32:55;;;;;;;2.53;1.10;;;3.70;99.90;;;;;;5076028;28;20454;-57
2021/01/03 00:35:25;;;;;;;1.70;0.80;;;3.60;99.90;;;;;;5077107;28;20424;-56
2021/01/03 00:37:53;;;;;;;2.28;1.17;;;3.40;99.90;;;;;;5074563;28;20470;-58
2021/01/03 00:40:23;;;;;;;2.10;1.00;;;3.50;99.90;;;;;;5074086;28;20438;-58
2021/01/03 00:42:49;;;;;;;1.70;1.10;;;3.40;99.90;;;;;;5073124;28;20511;-58
2021/01/03 00:45:17;;;;;;;2.20;1.10;;;3.40;99.90;;;;;;5072695;28;20427;-58
2021/01/03 00:47:43;;;;;;;2.57;1.10;;;3.30;99.90;;;;;;5073231;28;20616;-58
2021/01/03 00:50:11;;;;;;;1.60;1.10;;;3.20;99.90;;;;;;5071817;28;20427;-58
2021/01/03 00:52:38;;;;;;;4.60;1.27;;;3.20;99.90;;;;;;5071170;28;20566;-58
2021/01/03 00:55:08;;;;;;;2.00;1.10;;;3.20;99.90;;;;;;5075532;28;20418;-58
2021/01/03 00:57:35;;;;;;;1.50;1.00;;;3.10;99.90;;;;;;5089293;28;20521;-57
2021/01/03 01:00:05;;;;;;;2.00;1.10;;;3.10;99.90;;;;;;5083945;28;20573;-58
2021/01/03 01:02:32;;;;;;;1.70;1.10;;;3.20;99.90;;;;;;5066179;28;20522;-57
2021/01/03 01:04:59;;;;;;;1.50;1.10;;;3.30;99.90;;;;;;5082552;28;20537;-57
2021/01/03 01:07:25;;;;;;;1.70;1.00;;;3.40;99.90;;;;;;5094449;28;20498;-58
2021/01/03 01:09:52;;;;;;;1.42;1.00;;;3.30;99.90;;;;;;5088302;28;20824;-57
2021/01/03 01:12:20;;;;;;;2.50;1.30;;;3.10;99.90;;;;;;5074279;28;20514;-57
2021/01/03 01:14:47;;;;;;;1.80;1.00;;;3.10;99.90;;;;;;5077886;28;20819;-57
2021/01/03 01:17:13;;;;;;;2.20;1.20;;;3.20;99.90;;;;;;5091947;28;20512;-58
2021/01/03 01:19:40;;;;;;;2.42;1.20;;;3.30;99.90;;;;;;5088736;28;20511;-58
2021/01/03 01:22:07;;;;;;;2.20;1.08;;;3.20;99.90;;;;;;5074018;28;20508;-58
2021/01/03 01:24:34;;;;;;;2.25;1.00;;;3.10;99.90;;;;;;5073547;28;20426;-57
2021/01/03 01:27:00;;;;;;;2.08;1.08;;;3.00;99.90;;;;;;5072708;28;20428;-58
2021/01/03 01:29:28;;;;;;;2.05;1.00;;;3.10;99.90;;;;;;5075734;28;20883;-57
2021/01/03 01:31:55;;;;;;;2.40;1.20;;;3.10;99.90;;;;;;5095291;28;20555;-58
2021/01/03 01:34:22;;;;;;;1.58;1.02;;;3.20;99.90;;;;;;5093193;28;20422;-58
2021/01/03 01:36:48;;;;;;;1.90;1.00;;;3.30;99.90;;;;;;5073788;28;20499;-58
2021/01/03 01:39:15;;;;;;;1.80;0.90;;;3.50;99.90;;;;;;5073151;28;20436;-57
2021/01/03 01:41:42;;;;;;;1.85;1.00;;;3.60;99.90;;;;;;5094962;28;20516;-58
2021/01/03 01:44:10;;;;;;;1.90;1.00;;;3.50;99.90;;;;;;5095171;28;20451;-58
2021/01/03 01:46:47;;;;;;;2.30;1.10;;;3.40;99.90;;;;;;5073403;28;20521;-57
2021/01/03 01:49:16;;;;;;;2.50;1.20;;;3.50;99.90;;;;;;5094076;28;20425;-58
2021/01/03 01:51:46;;;;;;;2.85;1.20;;;3.60;99.90;;;;;;5094424;28;20409;-58
2021/01/03 01:54:16;;;;;;;1.90;1.00;;;3.30;99.90;;;;;;5095178;28;20465;-58
2021/01/03 01:56:51;;;;;;;3.07;1.30;;;3.30;99.90;;;;;;5096259;28;20457;-58
2021/01/03 01:59:23;;;;;;;2.08;1.00;;;3.10;99.90;;;;;;5076439;28;20432;-58
2021/01/03 02:02:01;;;;;;;1.92;1.10;;;3.00;99.90;;;;;;5075882;28;20426;-58
2021/01/03 02:04:31;;;;;;;1.90;1.10;;;2.90;99.90;;;;;;5095197;28;20434;-57
2021/01/03 02:07:04;;;;;;;3.42;1.20;;;3.00;99.90;;;;;;5094770;28;20505;-58
2021/01/03 02:09:42;;;;;;;2.55;1.20;;;3.00;99.90;;;;;;5093792;28;20512;-58
2021/01/03 02:12:15;;;;;;;3.03;1.20;;;3.10;99.90;;;;;;5093047;28;20432;-57
2021/01/03 02:14:43;;;;;;;2.43;1.43;;;3.20;99.90;;;;;;5073223;28;20427;-58
2021/01/03 02:17:10;;;;;;;3.33;1.20;;;3.10;99.90;;;;;;5074049;28;20723;-57
2021/01/03 02:19:38;;;;;;;2.95;1.10;;;3.10;99.90;;;;;;5083912;28;20521;-58
2021/01/03 02:22:15;;;;;;;2.40;1.30;;;3.10;99.90;;;;;;5080355;28;20787;-57
2021/01/03 02:24:46;;;;;;;2.75;1.27;;;2.90;99.90;;;;;;5095605;28;20513;-58
2021/01/03 02:27:21;;;;;;;3.50;1.10;;;2.90;99.90;;;;;;5092761;28;20883;-58
2021/01/03 02:29:52;;;;;;;2.13;1.23;;;3.00;99.90;;;;;;5093781;28;20433;-58
2021/01/03 02:32:19;;;;;;;2.78;1.38;;;3.30;99.90;;;;;;5082671;28;20435;-58
2021/01/03 02:34:49;;;;;;;3.08;1.35;;;3.20;99.90;;;;;;5073431;28;20465;-57
2021/01/03 02:37:20;;;;;;;3.55;1.30;;;3.10;99.90;;;;;;5082907;28;20448;-58
2021/01/03 02:39:53;;;;;;;2.90;1.30;;;3.00;99.90;;;;;;5093735;28;20426;-57
2021/01/03 02:42:25;;;;;;;2.90;1.70;;;2.90;99.90;;;;;;5085272;28;20783;-57
2021/01/03 02:44:52;;;;;;;2.75;1.40;;;2.70;99.90;;;;;;5074420;28;20577;-57
2021/01/03 02:47:23;;;;;;;2.95;1.40;;;2.80;99.90;;;;;;5082213;28;20504;-55
2021/01/03 02:49:50;;;;;;;2.65;1.50;;;2.90;99.90;;;;;;5091459;28;20472;-58
2021/01/03 02:52:22;;;;;;;3.03;1.33;;;2.90;99.90;;;;;;5074698;28;20511;-59
2021/01/03 02:54:50;;;;;;;3.55;1.60;;;2.70;99.90;;;;;;5075250;28;20462;-58
2021/01/03 02:57:17;;;;;;;3.43;1.73;;;2.40;99.90;;;;;;5094874;28;20536;-59
2021/01/03 02:59:45;;;;;;;3.63;2.10;;;2.00;99.90;;;;;;5092756;28;20521;-58
2021/01/03 03:02:12;;;;;;;3.90;1.67;;;2.00;99.90;;;;;;5094189;28;20812;-59
2021/01/03 03:04:39;;;;;;;3.45;1.88;;;2.00;99.90;;;;;;5092181;28;20512;-59
2021/01/03 03:07:05;;;;;;;3.33;1.60;;;2.20;99.90;;;;;;5073639;28;20415;-58
2021/01/03 03:09:32;;;;;;;2.60;1.50;;;2.50;99.90;;;;;;5073620;28;20513;-58
2021/01/03 03:11:59;;;;;;;2.92;1.45;;;2.80;99.90;;;;;;5093184;28;20512;-58
2021/01/03 03:14:26;;;;;;;2.80;1.80;;;2.90;99.90;;;;;;5093369;28;20875;-58
2021/01/03 03:16:57;;;;;;;4.07;2.35;;;2.80;99.90;;;;;;5091044;28;20521;-58
2021/01/03 03:19:24;;;;;;;4.38;1.80;;;2.60;99.90;;;;;;5093257;28;20414;-58
2021/01/03 03:21:51;;;;;;;4.30;1.50;;;2.40;99.90;;;;;;5092015;28;20470;-60
2021/01/03 03:24:18;;;;;;;3.28;1.80;;;2.20;99.90;;;;;;5093246;28;20512;-58
2021/01/03 03:26:50;;;;;;;3.85;1.80;;;2.30;99.90;;;;;;5076070;28;20546;-58
2021/01/03 03:29:17;;;;;;;3.30;2.20;;;2.50;99.90;;;;;;5071858;28;20420;-58
2021/01/03 03:31:44;;;;;;;3.28;1.60;;;2.60;99.90;;;;;;5073330;28;20432;-57
2021/01/03 03:34:12;;;;;;;4.50;1.90;;;2.60;99.90;;;;;;5086372;28;20422;-57
2021/01/03 03:36:39;;;;;;;3.22;1.60;;;2.60;99.90;;;;;;5094091;28;20800;-57
2021/01/03 03:39:05;;;;;;;3.92;2.17;;;2.70;99.90;;;;;;5083642;28;20439;-57
2021/01/03 03:41:32;;;;;;;3.53;1.70;;;2.80;99.90;;;;;;5074206;28;20561;-57
2021/01/03 03:43:59;;;;;;;2.65;1.70;;;3.00;99.90;;;;;;5083035;28;20429;-57
2021/01/03 03:46:26;;;;;;;4.00;2.00;;;2.80;99.90;;;;;;5094707;28;20808;-56
2021/01/03 03:48:53;;;;;;;3.90;1.85;;;2.70;99.90;;;;;;5086511;28;20459;-56
2021/01/03 03:51:21;;;;;;;4.20;1.60;;;2.70;99.90;;;;;;5074377;28;20427;-57
2021/01/03 03:53:48;;;;;;;3.38;1.90;;;2.70;99.90;;;;;;5080506;28;20520;-57
2021/01/03 03:56:16;;;;;;;3.97;2.20;;;2.80;99.90;;;;;;5094473;28;20494;-57
2021/01/03 03:58:43;;;;;;;3.10;1.50;;;2.80;99.90;;;;;;5089023;28;20514;-57
2021/01/03 04:01:10;;;;;;;3.10;1.73;;;2.90;99.90;;;;;;5075021;28;20519;-57
2021/01/03 04:03:38;;;;;;;5.13;1.75;;;3.00;99.90;;;;;;5094393;28;20445;-56
2021/01/03 04:06:06;;;;;;;3.22;1.85;;;3.10;99.90;;;;;;5093969;28;20458;-56
2021/01/03 04:08:36;;;;;;;4.50;1.77;;;3.00;99.90;;;;;;5074222;28;20830;-56
2021/01/03 04:11:03;;;;;;;2.88;1.40;;;3.00;99.90;;;;;;5074043;28;20419;-54
2021/01/03 04:13:30;;;;;;;3.30;1.60;;;3.00;99.90;;;;;;5074118;28;20439;-57
2021/01/03 04:15:57;;;;;;;3.58;1.70;;;3.00;99.90;;;;;;5074007;28;20529;-57
2021/01/03 04:18:23;;;;;;;4.53;1.85;;;2.90;99.90;;;;;;5075114;28;20454;-55
2021/01/03 04:20:51;;;;;;;3.95;1.80;;;2.80;99.90;;;;;;5073670;28;20435;-57
2021/01/03 04:23:17;;;;;;;4.28;1.90;;;2.80;99.90;;;;;;5088416;28;20697;-55
2021/01/03 04:25:45;;;;;;;3.10;1.53;;;2.90;99.90;;;;;;5091899;28;20421;-53
2021/01/03 04:28:12;;;;;;;3.00;1.80;;;3.10;99.90;;;;;;5076656;28;20498;-52
2021/01/03 04:30:39;;;;;;;5.30;2.53;;;3.00;99.90;;;;;;5072469;28;20462;-54
2021/01/03 04:33:06;;;;;;;3.88;1.98;;;2.70;99.90;;;;;;5072987;28;20432;-53
2021/01/03 04:35:32;;;;;;;3.17;2.03;;;2.40;99.90;;;;;;5065271;28;20431;-52
2021/01/03 04:37:59;;;;;;;4.95;2.10;;;2.40;99.90;;;;;;5092485;28;20432;-59
2021/01/03 04:40:29;;;;;;;3.80;2.08;;;2.20;99.90;;;;;;5096978;28;20430;-55
2021/01/03 04:43:00;;;;;;;3.35;1.88;;;2.30;99.90;;;;;;5082348;28;20434;-54
2021/01/03 04:45:31;;;;;;;4.47;1.83;;;2.20;99.90;;;;;;5076075;28;20518;-54
2021/01/03 04:48:01;;;;;;;3.00;1.60;;;2.20;99.90;;;;;;5090334;28;20483;-55
2021/01/03 04:50:54;;;;;;;4.18;1.70;;;2.40;99.90;;;;;;5095632;28;20529;-54
2021/01/03 04:53:37;;;;;;;5.30;1.50;;;2.70;99.90;;;;;;5074690;28;20526;-54
2021/01/03 04:56:15;;;;;;;3.97;1.70;;;2.80;99.90;;;;;;5075253;28;20810;-56
2021/01/03 04:58:55;;;;;;;3.53;1.70;;;2.80;99.90;;;;;;5074991;28;20431;-54
2021/01/03 05:02:01;;;;;;;3.63;1.60;;;2.70;99.90;;;;;;5092409;28;20717;-56
2021/01/03 05:04:50;;;;;;;3.92;1.70;;;2.70;99.90;;;;;;5096142;28;20501;-53
2021/01/03 05:07:24;;;;;;;3.17;1.90;;;2.60;99.90;;;;;;5075150;28;20506;-55
2021/01/03 05:09:52;;;;;;;3.40;1.85;;;2.80;99.90;;;;;;5075744;28;20719;-55
2021/01/03 05:12:24;;;;;;;4.75;2.33;;;2.50;99.90;;;;;;5074418;28;20427;-56
2021/01/03 05:14:58;;;;;;;2.53;1.60;;;2.30;99.90;;;;;;5077732;28;20448;-55
2021/01/03 05:17:25;;;;;;;3.40;1.60;;;2.40;99.90;;;;;;5096768;28;20452;-56
2021/01/03 05:19:52;;;;;;;2.70;1.60;;;2.50;99.90;;;;;;5094106;28;20461;-54
2021/01/03 05:22:28;;;;;;;4.10;1.48;;;2.70;99.90;;;;;;5076334;28;20420;-56
2021/01/03 05:24:57;;;;;;;3.75;1.73;;;2.90;99.90;;;;;;5078306;28;20787;-55
2021/01/03 05:27:25;;;;;;;3.70;1.67;;;2.90;99.90;;;;;;5096994;28;20523;-55
2021/01/03 05:29:53;;;;;;;3.22;1.27;;;2.90;99.90;;;;;;5076555;28;20514;-56
2021/01/03 05:32:30;;;;;;;3.15;1.80;;;2.90;99.90;;;;;;5084720;28;20422;-54
2021/01/03 05:34:57;;;;;;;3.95;1.90;;;2.60;99.90;;;;;;5094654;28;20421;-54
2021/01/03 05:37:28;;;;;;;3.40;1.92;;;2.60;99.90;;;;;;5082846;28;20429;-54
2021/01/03 05:39:55;;;;;;;3.65;1.60;;;2.70;99.90;;;;;;5072840;28;20544;-54
2021/01/03 05:42:37;;;;;;;3.30;1.60;;;2.80;99.90;;;;;;5083883;28;20512;-53
2021/01/03 05:45:08;;;;;;;3.33;1.85;;;2.90;99.90;;;;;;5095068;28;20426;-55
2021/01/03 05:47:38;;;;;;;5.25;2.80;;;2.90;99.90;;;;;;5082997;28;20522;-55
2021/01/03 05:50:25;;;;;;;3.95;1.75;;;2.70;99.90;;;;;;5075459;28;20975;-56
2021/01/03 05:52:54;;;;;;;3.70;1.77;;;2.60;99.90;;;;;;5089325;28;20434;-55
2021/01/03 05:55:26;;;;;;;3.83;1.92;;;2.60;99.90;;;;;;5096219;28;20529;-55
2021/01/03 05:58:17;;;;;;;4.72;2.00;;;2.80;99.90;;;;;;5092284;28;20509;-54
2021/01/03 06:00:45;;;;;;;3.22;1.60;;;2.90;99.90;;;;;;5095925;28;20476;-56
2021/01/03 06:03:22;;;;;;;4.07;1.65;;;2.90;99.90;;;;;;5077185;28;20435;-54
2021/01/03 06:05:51;;;;;;;3.40;1.75;;;3.00;99.90;;;;;;5075760;28;20525;-54
2021/01/03 06:08:22;;;;;;;3.58;1.95;;;3.20;99.90;;;;;;5089766;28;20513;-55
2021/01/03 06:10:49;;;;;;;3.50;2.10;;;3.20;99.90;;;;;;5096182;28;20456;-56
2021/01/03 06:13:18;;;;;;;3.85;1.90;;;3.00;99.90;;;;;;5093527;28;20521;-55
2021/01/03 06:15:51;;;;;;;4.50;1.50;;;3.00;99.90;;;;;;5095629;28;20418;-55
2021/01/03 06:18:31;;;;;;;5.00;2.20;;;3.00;99.90;;;;;;5093803;28;20856;-56
2021/01/03 06:20:59;;;;;;;3.60;1.50;;;3.00;99.90;;;;;;5095865;28;20829;-55
2021/01/03 06:23:31;;;;;;;2.90;1.50;;;3.10;99.90;;;;;;5077014;28;20439;-56
2021/01/03 06:26:04;;;;;;;3.40;1.90;;;3.10;99.90;;;;;;5080741;28;20435;-53
2021/01/03 06:28:47;;;;;;;4.38;1.90;;;3.00;99.90;;;;;;5075147;28;20435;-55
2021/01/03 06:31:56;;;;;;;3.58;1.85;;;2.90;99.90;;;;;;5091114;28;20497;-55
2021/01/03 06:34:29;;;;;;;4.40;2.50;;;2.80;99.90;;;;;;5029858;28;20439;-56
2021/01/03 06:37:08;;;;;;;4.13;2.20;;;2.80;99.90;;;;;;5074726;28;20426;-54
2021/01/03 06:39:46;;;;;;;5.30;2.00;;;2.80;99.90;;;;;;5075273;28;20459;-56
2021/01/03 06:43:00;;;;;;;3.17;1.60;;;2.90;99.90;;;;;;5075379;28;20423;-55
2021/01/03 06:45:50;;;;;;;4.97;2.30;;;2.80;99.90;;;;;;5082851;28;20529;-56
2021/01/03 06:48:48;;;;;;;3.55;2.00;;;2.80;99.90;;;;;;5094281;28;20458;-55
2021/01/03 06:51:40;;;;;;;4.90;1.90;;;2.90;99.90;;;;;;5080197;28;20938;-53
2021/01/03 06:54:44;;;;;;;3.90;1.60;;;3.00;99.90;;;;;;5081088;28;20517;-51
2021/01/03 06:57:43;;;;;;;4.40;2.40;;;3.00;99.90;;;;;;5095196;28;20517;-56
2021/01/03 07:00:15;;;;;;;4.22;1.90;;;2.80;99.90;;;;;;5076808;28;20496;-56
2021/01/03 07:02:46;;;;;;;3.93;1.90;;;2.70;99.90;;;;;;5073841;28;20427;-57
2021/01/03 07:05:14;;;;;;;5.65;1.90;;;2.80;99.90;;;;;;5088097;28;20512;-56
2021/01/03 07:07:45;;;;;;;5.47;2.47;;;3.00;99.90;;;;;;5090966;28;20806;-56
2021/01/03 07:10:21;;;;;;;6.15;2.22;;;3.10;99.90;;;;;;5073964;28;20420;-57
2021/01/03 07:12:50;;;;;;;5.18;2.20;;;3.10;99.90;;;;;;5077117;28;20504;-56
2021/01/03 07:15:38;;;;;;;3.90;1.90;;;2.90;99.90;;;;;;5094774;28;20454;-56
2021/01/03 07:18:24;;;;;;;2.53;1.70;;;2.80;99.90;;;;;;5088990;28;20937;-57
2021/01/03 07:20:56;;;;;;;4.47;1.75;;;2.70;99.90;;;;;;5074556;28;20493;-55
2021/01/03 07:23:35;;;;;;;3.30;1.57;;;2.40;99.90;;;;;;5089000;28;20457;-54
2021/01/03 07:26:18;;;;;;;6.03;2.30;;;2.50;99.90;;;;;;5094295;28;20466;-56
2021/01/03 07:28:50;;;;;;;4.28;1.85;;;2.70;99.90;;;;;;5070054;28;20521;-56
2021/01/03 07:31:39;;;;;;;4.60;2.40;;;3.00;99.90;;;;;;5073059;28;20887;-56
2021/01/03 07:34:08;;;;;;;5.70;2.78;;;2.70;99.90;;;;;;5093413;28;20491;-54
2021/01/03 07:36:53;;;;;;;3.83;2.10;;;2.40;99.90;;;;;;5086735;28;20540;-57
2021/01/03 07:39:28;;;;;;;5.00;2.28;;;2.10;99.90;;;;;;5073769;28;20482;-56
2021/01/03 07:42:17;;;;;;;5.03;2.22;;;1.90;99.90;;;;;;5074245;28;20440;-56
2021/01/03 07:44:45;;;;;;;4.50;2.40;;;2.20;99.90;;;;;;5074120;28;20860;-56
2021/01/03 07:47:11;;;;;;;6.07;2.47;;;2.20;99.90;;;;;;5075223;28;20436;-57
2021/01/03 07:49:42;;;;;;;5.53;2.70;;;2.30;99.90;;;;;;5073180;28;20530;-57
2021/01/03 07:52:38;;;;;;;5.28;1.88;;;2.40;99.90;;;;;;5090396;28;20479;-55
2021/01/03 07:55:13;;;;;;;4.13;2.05;;;2.40;99.90;;;;;;5090809;28;20432;-56
2021/01/03 07:57:40;;;;;;;3.28;1.58;;;2.60;99.90;;;;;;5065218;28;20420;-55
2021/01/03 08:00:08;;;;;;;6.00;2.50;;;2.70;99.90;;;;;;5074355;28;20792;-54
2021/01/03 08:02:37;;;;;;;5.45;2.40;;;2.70;99.90;;;;;;5094270;28;20532;-54
2021/01/03 08:05:05;;;;;;;4.80;2.20;;;2.70;99.90;;;;;;5091254;28;20777;-55
2021/01/03 08:07:34;;;;;;;4.35;2.10;;;2.80;99.90;;;;;;5076926;28;20518;-56
2021/01/03 08:10:12;;;;;;;5.10;1.87;;;2.90;99.90;;;;;;5074297;28;20518;-56
2021/01/03 08:12:41;;;;;;;5.63;2.63;;;3.10;99.90;;;;;;5077300;28;20458;-55
2021/01/03 08:15:12;;;;;;;4.72;2.40;;;3.20;99.90;;;;;;5077214;28;20433;-55
2021/01/03 08:17:43;;;;;;;4.60;2.10;;;3.10;99.90;;;;;;5097032;28;20490;-53
2021/01/03 08:20:16;;;;;;;5.30;1.97;;;3.10;99.90;;;;;;5080926;28;20525;-54
2021/01/03 08:22:43;;;;;;;3.35;1.85;;;3.30;99.90;;;;;;5077130;28;20525;-50
2021/01/03 08:25:18;;;;;;;4.30;2.10;;;3.00;99.90;;;;;;5075669;28;20492;-52
2021/01/03 08:27:51;;;;;;;4.55;2.00;;;2.90;99.90;;;;;;5092712;28;20429;-55
2021/01/03 08:30:22;;;;;;;3.33;1.58;;;3.00;99.90;;;;;;5091676;28;20464;-54
2021/01/03 08:32:49;;;;;;;5.07;2.30;;;3.20;99.90;;;;;;5088586;28;20833;-51
2021/01/03 08:35:28;;;;;;;3.33;1.50;;;3.10;99.90;;;;;;5080300;28;20431;-56
2021/01/03 08:37:55;;;;;;;4.25;2.10;;;2.80;99.90;;;;;;5094166;28;20548;-54
2021/01/03 08:40:27;;;;;;;5.10;2.10;;;2.50;99.90;;;;;;5091206;28;20437;-55
2021/01/03 08:43:02;;;;;;;4.60;1.70;;;2.30;99.90;;;;;;5095359;28;20505;-54
2021/01/03 08:45:33;;;;;;;4.20;1.85;;;2.20;99.90;;;;;;5085807;28;20768;-55
2021/01/03 08:48:02;;;;;;;4.50;1.70;;;2.00;99.90;;;;;;5093628;28;20430;-56
2021/01/03 08:50:32;;;;;;;5.28;2.08;;;2.00;99.90;;;;;;5095309;28;20520;-55
2021/01/03 08:53:02;;;;;;;3.83;1.40;;;2.30;99.90;;;;;;5084341;28;20518;-55
2021/01/03 08:55:32;;;;;;;4.15;1.40;;;2.60;99.90;;;;;;5087622;28;20517;-55
2021/01/03 08:58:01;;;;;;;2.88;1.70;;;2.90;99.90;;;;;;5091681;28;20795;-56
2021/01/03 09:00:32;;;;;;;4.18;1.90;;;3.30;99.90;;;;;;5095177;28;20571;-56
2021/01/03 09:03:01;;;;;;;4.30;1.70;;;3.10;99.90;;;;;;5092174;28;20438;-52
2021/01/03 09:05:33;;;;;;;4.00;1.80;;;2.80;99.90;;;;;;5091825;28;20486;-54
2021/01/03 09:08:02;;;;;;;3.97;2.10;;;2.80;99.90;;;;;;5093926;28;20516;-55
2021/01/03 09:10:34;;;;;;;2.85;1.60;;;2.90;99.90;;;;;;5089512;28;20782;-53
2021/01/03 09:13:14;;;;;;;4.78;2.00;;;3.00;99.90;;;;;;5092378;28;20469;-54
2021/01/03 09:15:44;;;;;;;3.85;2.00;;;3.20;99.90;;;;;;5095940;28;20883;-56
2021/01/03 09:18:28;;;;;;;4.20;1.60;;;3.00;99.90;;;;;;5091005;28;20434;-55
2021/01/03 09:21:01;;;;;;;4.30;1.70;;;2.70;99.90;;;;;;5092483;28;20524;-55
2021/01/03 09:23:30;;;;;;;4.20;1.77;;;2.50;99.90;;;;;;5094217;28;20460;-56
2021/01/03 09:25:59;;;;;;;4.43;1.85;;;2.30;99.90;;;;;;5093628;28;20524;-56
2021/01/03 09:28:29;;;;;;;4.60;1.70;;;2.20;99.90;;;;;;5083724;28;20442;-56
2021/01/03 09:31:16;;;;;;;4.60;2.00;;;2.50;99.90;;;;;;5094065;28;20453;-54
2021/01/03 09:33:47;;;;;;;3.00;1.50;;;2.70;99.90;;;;;;5093425;28;20422;-55
2021/01/03 09:36:28;;;;;;;2.10;1.40;;;3.00;99.90;;;;;;5095673;28;20465;-56
2021/01/03 09:39:33;;;;;;;3.35;1.90;;;3.20;99.90;;;;;;5092821;28;20524;-54
2021/01/03 09:42:16;;;;;;;4.15;2.00;;;3.30;99.90;;;;;;5074879;28;20812;-55
2021/01/03 09:44:50;;;;;;;3.25;1.73;;;3.40;99.90;;;;;;5081303;28;20477;-55
2021/01/03 09:47:17;;;;;;;4.22;1.90;;;3.30;99.90;;;;;;5077276;28;20865;-56
2021/01/03 09:49:48;;;;;;;4.50;2.00;;;3.30;99.90;;;;;;5093920;28;20465;-53
2021/01/03 09:52:22;;;;;;;3.90;1.80;;;3.20;99.90;;;;;;5087068;28;20485;-55
2021/01/03 09:54:59;;;;;;;3.03;1.73;;;3.20;99.90;;;;;;5085081;28;20417;-53
2021/01/03 09:57:37;;;;;;;3.88;2.00;;;3.50;99.90;;;;;;5084477;28;20849;-54
2021/01/03 10:00:09;;;;;;;3.40;1.45;;;3.40;99.90;;;;;;5090738;28;20426;-54
2021/01/03 10:02:36;;;;;;;4.50;1.80;;;3.70;99.90;;;;;;5091484;28;20429;-56
2021/01/03 10:05:05;;;;;;;3.58;1.77;;;4.10;99.90;;;;;;5091887;28;20487;-55
2021/01/03 10:07:32;;;;;;;3.20;1.58;;;4.40;99.90;;;;;;5083382;28;20460;-56
2021/01/03 10:10:01;;;;;;;3.00;1.50;;;4.50;99.90;;;;;;5080972;28;20878;-56
2021/01/03 10:12:32;;;;;;;5.90;1.70;;;4.60;99.90;;;;;;5081297;28;20702;-55
2021/01/03 10:15:11;;;;;;;3.60;1.70;;;4.60;99.90;;;;;;5090676;28;20561;-55
2021/01/03 10:17:41;;;;;;;2.83;1.50;;;4.40;99.90;;;;;;5087898;28;20799;-55
2021/01/03 10:20:31;;;;;;;3.58;1.60;;;4.20;99.90;;;;;;5085757;28;20432;-52
2021/01/03 10:22:58;;;;;;;4.57;1.80;;;4.30;99.90;;;;;;5088129;28;20425;-56
2021/01/03 10:25:25;;;;;;;4.53;2.20;;;3.80;99.90;;;;;;5088643;28;20422;-56
2021/01/03 10:28:09;;;;;;;3.10;1.50;;;3.70;99.90;;;;;;5086379;28;20518;-54
2021/01/03 10:30:36;;;;;;;3.35;1.70;;;3.60;99.90;;;;;;5073993;28;20426;-52
2021/01/03 10:33:03;;;;;;;3.90;1.50;;;3.50;99.90;;;;;;5088455;28;20431;-54
2021/01/03 10:35:30;;;;;;;3.38;1.70;;;3.30;99.90;;;;;;5082513;28;20516;-55
2021/01/03 10:37:57;;;;;;;3.92;1.60;;;3.40;99.90;;;;;;5090867;28;20550;-54
2021/01/03 10:40:24;;;;;;;3.50;1.70;;;3.50;99.90;;;;;;5076773;28;20451;-54
2021/01/03 10:42:51;;;;;;;3.03;1.60;;;3.70;99.90;;;;;;5089008;28;20432;-52
2021/01/03 10:45:20;;;;;;;3.20;1.40;;;3.80;99.90;;;;;;5091225;28;20975;-56
2021/01/03 10:47:48;;;;;;;3.50;1.80;;;4.00;99.90;;;;;;5086200;28;20433;-55
2021/01/03 10:50:17;;;;;;;2.20;1.40;;;3.80;99.90;;;;;;5076056;28;20869;-55
2021/01/03 10:52:44;;;;;;;4.10;2.00;;;3.80;99.90;;;;;;5088823;28;20773;-55
2021/01/03 10:55:12;;;;;;;3.50;1.70;;;3.80;99.90;;;;;;5093051;28;20426;-54
2021/01/03 10:57:39;;;;;;;3.22;1.58;;;3.40;99.90;;;;;;5080590;28;20423;-56
2021/01/03 11:00:07;;;;;;;4.10;2.00;;;3.30;99.90;;;;;;5087061;28;20422;-56
2021/01/03 11:02:35;;;;;;;4.93;2.10;;;3.30;99.90;;;;;;5091468;28;20516;-56
2021/01/03 11:05:02;;;;;;;3.72;1.67;;;3.20;99.90;;;;;;5092816;28;20452;-54
2021/01/03 11:07:29;;;;;;;5.07;2.20;;;3.30;99.90;;;;;;5074595;28;20843;-55
2021/01/03 11:09:55;;;;;;;3.30;1.80;;;3.40;99.90;;;;;;5073052;28;20425;-53
2021/01/03 11:12:24;;;;;;;5.23;2.47;;;3.60;99.90;;;;;;5072790;28;20511;-54
2021/01/03 11:14:51;;;;;;;5.05;2.00;;;3.50;99.90;;;;;;5074864;28;20526;-56
2021/01/03 11:17:19;;;;;;;3.75;2.15;;;3.30;99.90;;;;;;5084175;28;20426;-56
2021/01/03 11:19:47;;;;;;;4.57;2.40;;;3.30;99.90;;;;;;5091764;28;20464;-53
2021/01/03 11:22:16;;;;;;;3.45;1.70;;;3.10;99.90;;;;;;5083123;28;20509;-57
2021/01/03 11:24:44;;;;;;;3.72;1.70;;;3.50;99.90;;;;;;5083556;28;20433;-58
2021/01/03 11:27:13;;;;;;;3.72;1.90;;;3.80;99.90;;;;;;5077741;28;20441;-58
2021/01/03 11:29:40;;;;;;;3.22;1.55;;;4.10;99.90;;;;;;5085245;28;20723;-58
2021/01/03 11:32:14;;;;;;;4.30;2.28;;;4.40;99.90;;;;;;5079033;28;20432;-59
2021/01/03 11:34:41;;;;;;;4.45;2.20;;;4.20;99.90;;;;;;5085677;28;20463;-57
2021/01/03 11:37:11;;;;;;;4.90;2.10;;;4.00;99.90;;;;;;5080452;28;20876;-57
2021/01/03 11:39:41;;;;;;;3.90;2.08;;;3.90;99.90;;;;;;5081150;28;20546;-56
2021/01/03 11:42:12;;;;;;;4.03;1.73;;;4.30;99.90;;;;;;5086843;28;20426;-56
2021/01/03 11:44:40;;;;;;;4.05;2.08;;;4.00;99.90;;;;;;5074849;28;20715;-57
2021/01/03 11:47:09;;;;;;;4.80;2.40;;;3.90;99.90;;;;;;5089611;28;20430;-57
2021/01/03 11:49:37;;;;;;;4.70;2.10;;;4.10;99.90;;;;;;5077532;28;20435;-56
2021/01/03 11:52:06;;;;;;;4.20;2.30;;;4.60;99.90;;;;;;5084189;28;20504;-56
2021/01/03 11:54:34;;;;;;;3.33;1.80;;;5.10;99.90;;;;;;5096354;28;20424;-56
2021/01/03 11:57:01;;;;;;;2.85;2.03;;;5.20;99.90;;;;;;5096404;28;20519;-57
2021/01/03 11:59:29;;;;;;;3.65;2.25;;;4.90;99.90;;;;;;5093375;28;20430;-58
2021/01/03 12:01:56;;;;;;;4.38;2.00;;;4.60;99.90;;;;;;5091540;28;20500;-59
2021/01/03 12:04:24;;;;;;;2.80;1.70;;;4.50;99.90;;;;;;5080936;28;20434;-57
2021/01/03 12:06:55;;;;;;;3.83;1.63;;;4.60;99.90;;;;;;5091250;28;20425;-55
2021/01/03 12:09:23;;;;;;;4.38;2.20;;;4.80;99.90;;;;;;5080860;28;20533;-54
2021/01/03 12:11:54;;;;;;;3.30;1.63;;;4.70;99.90;;;;;;5078403;28;20435;-57
2021/01/03 12:14:21;;;;;;;5.57;2.85;;;5.00;99.90;;;;;;5094772;28;20461;-57
2021/01/03 12:16:53;;;;;;;5.00;2.10;;;5.10;99.90;;;;;;5095437;28;20426;-57
2021/01/03 12:19:20;;;;;;;4.55;2.40;;;4.80;99.90;;;;;;5076109;28;20740;-57
2021/01/03 12:21:47;;;;;;;4.32;2.03;;;4.60;99.90;;;;;;5075040;28;20438;-58
2021/01/03 12:24:13;;;;;;;6.03;2.57;;;4.60;99.90;;;;;;5075315;28;20589;-57
2021/01/03 12:26:41;;;;;;;4.00;2.42;;;4.50;99.90;;;;;;5073900;28;20470;-58
2021/01/03 12:29:12;;;;;;;4.07;2.88;;;4.10;99.90;;;;;;5075073;28;20433;-57
2021/01/03 12:31:44;;;;;;;5.35;2.70;;;3.80;99.90;;;;;;5080869;28;20458;-57
2021/01/03 12:34:13;;;;;;;5.95;2.58;;;3.20;99.90;;;;;;5089572;28;20446;-56
2021/01/03 12:36:40;;;;;;;6.45;3.08;;;3.10;99.90;;;;;;5096537;28;20439;-56
2021/01/03 12:39:08;;;;;;;4.88;2.53;;;3.20;99.90;;;;;;5084484;28;20451;-57
2021/01/03 12:41:36;;;;;;;6.22;3.30;;;3.30;99.90;;;;;;5080972;28;20437;-57
2021/01/03 12:44:03;;;;;;;6.20;2.65;;;3.40;99.90;;;;;;5077439;28;20875;-57
2021/01/03 12:46:33;;;;;;;6.78;2.80;;;3.50;99.90;;;;;;5076488;28;20423;-58
2021/01/03 12:49:00;;;;;;;5.88;3.00;;;3.50;99.90;;;;;;5081287;28;20825;-57
2021/01/03 12:51:27;;;;;;;4.95;2.60;;;3.50;99.90;;;;;;5084202;28;20866;-57
2021/01/03 12:53:54;;;;;;;5.72;2.50;;;3.60;99.90;;;;;;5095262;28;20418;-57
2021/01/03 12:56:22;;;;;;;5.82;3.22;;;3.80;99.90;;;;;;5092950;28;20433;-54
2021/01/03 12:58:50;;;;;;;4.80;2.67;;;3.70;99.90;;;;;;5095101;28;20430;-57
2021/01/03 13:01:17;;;;;;;6.85;3.42;;;3.70;99.90;;;;;;5093979;28;20516;-57
2021/01/03 13:03:44;;;;;;;6.90;3.40;;;3.80;99.90;;;;;;5085945;28;20507;-56
2021/01/03 13:06:12;;;;;;;6.25;3.40;;;3.80;99.90;;;;;;5084538;28;20433;-56
2021/01/03 13:12:02;;;;;;;5.38;3.10;;;3.30;99.90;;;;;;5079640;28;20384;-57
2021/01/03 13:14:28;;;;;;;6.20;3.10;;;3.40;99.90;;;;;;5080084;28;20528;-57
2021/01/03 13:16:54;;;;;;;7.30;3.70;;;3.30;99.90;;;;;;5091120;28;20511;-58
2021/01/03 13:19:22;;;;;;;7.10;3.90;;;3.20;99.90;;;;;;5080510;28;20488;-57
2021/01/03 13:21:50;;;;;;;6.95;3.50;;;3.00;99.90;;;;;;5079258;28;20426;-57